Time;durP1;ratioP1;P1;durP2;ratioP2;P2;SDS_P1;SDS_P2;PMS_P1;PMS_P2;Temp;Humidity;BMP_temperature;BMP_pressure;BME280_temperature;BME280_humidity;BME280_pressure;Samples;Min_cycle;Max_cycle;Signal;HPM_P1;HPM_P2
2022/05/20 00:01:04;;;;;;;0.25;0.25;;;20.90;99.90;;;;;;4398564;32;20082;-68
2022/05/20 00:03:31;;;;;;;0.32;0.32;;;21.00;99.90;;;;;;4416960;32;20548;-68
2022/05/20 00:05:59;;;;;;;1.10;0.60;;;20.90;99.90;;;;;;4413399;32;20064;-70
2022/05/20 00:08:24;;;;;;;0.20;0.20;;;20.80;99.90;;;;;;4404869;32;20073;-69
2022/05/20 00:10:53;;;;;;;0.40;0.40;;;20.70;99.90;;;;;;4416554;32;20077;-69
2022/05/20 00:13:20;;;;;;;0.37;0.30;;;20.70;99.90;;;;;;4417526;32;20533;-69
2022/05/20 00:15:46;;;;;;;0.73;0.37;;;20.70;99.90;;;;;;4421747;32;20136;-69
2022/05/20 00:18:11;;;;;;;0.30;0.30;;;20.70;99.90;;;;;;4419822;32;20086;-69
2022/05/20 00:20:37;;;;;;;0.68;0.62;;;20.60;99.90;;;;;;4418614;32;20136;-69
2022/05/20 00:23:03;;;;;;;0.20;0.20;;;20.60;99.90;;;;;;4420146;32;20069;-69
2022/05/20 00:26:00;;;;;;;0.35;0.32;;;20.60;99.90;;;;;;4419800;32;20131;-69
2022/05/20 00:28:20;;;;;;;0.40;0.30;;;20.50;99.90;;;;;;4396519;32;20078;-69
2022/05/20 00:30:47;;;;;;;0.30;0.30;;;20.40;99.90;;;;;;4397825;32;20069;-68
2022/05/20 00:33:13;;;;;;;0.32;0.32;;;20.40;99.90;;;;;;4415983;32;20078;-68
2022/05/20 00:35:39;;;;;;;0.45;0.28;;;20.40;99.90;;;;;;4400903;32;20490;-68
2022/05/20 00:38:05;;;;;;;0.50;0.50;;;20.40;99.90;;;;;;4403996;32;20065;-68
2022/05/20 00:40:32;;;;;;;1.98;0.40;;;20.40;99.90;;;;;;4414491;32;20461;-69
2022/05/20 00:43:09;;;;;;;0.90;0.70;;;20.30;99.90;;;;;;4419123;32;20074;-68
2022/05/20 00:45:35;;;;;;;1.80;1.08;;;20.20;99.90;;;;;;4420292;32;20081;-68
2022/05/20 00:48:00;;;;;;;0.45;0.45;;;20.10;99.90;;;;;;4420893;32;20074;-68
2022/05/20 00:50:26;;;;;;;0.47;0.30;;;20.20;99.90;;;;;;4421524;32;20144;-68
2022/05/20 00:52:53;;;;;;;0.68;0.68;;;20.20;99.90;;;;;;4419558;32;20098;-69
2022/05/20 00:55:21;;;;;;;1.92;0.30;;;20.10;99.90;;;;;;4419852;32;20085;-69
2022/05/20 00:57:55;;;;;;;0.30;0.30;;;20.10;99.90;;;;;;4411813;32;20524;-68
2022/05/20 01:00:24;;;;;;;0.20;0.20;;;20.00;99.90;;;;;;4400048;32;20219;-68
2022/05/20 01:02:54;;;;;;;0.40;0.40;;;20.00;99.90;;;;;;4417035;32;20098;-70
2022/05/20 01:05:26;;;;;;;0.20;0.20;;;20.00;99.90;;;;;;4414224;32;20113;-69
2022/05/20 01:07:53;;;;;;;0.30;0.30;;;19.80;99.90;;;;;;4404550;32;20463;-68
2022/05/20 01:10:18;;;;;;;0.47;0.47;;;19.90;99.90;;;;;;4414623;32;20065;-68
2022/05/20 01:12:44;;;;;;;0.47;0.47;;;19.90;99.90;;;;;;4420787;32;20408;-69
2022/05/20 01:15:10;;;;;;;1.35;1.02;;;19.80;99.90;;;;;;4418839;32;20418;-69
2022/05/20 01:17:37;;;;;;;1.37;1.02;;;19.80;99.90;;;;;;4419559;32;20057;-69
2022/05/20 01:20:08;;;;;;;0.40;0.40;;;19.70;99.90;;;;;;4417528;32;20156;-69
2022/05/20 01:22:40;;;;;;;0.20;0.20;;;19.70;99.90;;;;;;4418681;32;20536;-69
2022/05/20 01:25:09;;;;;;;0.55;0.55;;;19.70;99.90;;;;;;4416097;32;20110;-69
2022/05/20 01:27:36;;;;;;;0.28;0.28;;;19.60;99.90;;;;;;4397354;32;20148;-69
2022/05/20 01:30:04;;;;;;;1.05;0.50;;;19.60;99.90;;;;;;4393987;32;20409;-68
2022/05/20 01:32:29;;;;;;;0.30;0.30;;;19.50;99.90;;;;;;4413255;32;20101;-68
2022/05/20 01:34:55;;;;;;;0.85;0.40;;;19.50;99.90;;;;;;4416188;32;20066;-68
2022/05/20 01:37:21;;;;;;;0.40;0.40;;;19.40;99.90;;;;;;4404927;32;20061;-68
2022/05/20 01:39:46;;;;;;;0.30;0.30;;;19.50;99.90;;;;;;4407475;32;20619;-68
2022/05/20 01:42:20;;;;;;;0.40;0.40;;;19.50;99.90;;;;;;4405219;32;20567;-68
2022/05/20 01:44:55;;;;;;;0.80;0.68;;;19.40;99.90;;;;;;4422178;32;20360;-68
2022/05/20 01:47:31;;;;;;;0.65;0.30;;;19.30;99.90;;;;;;4421669;32;20135;-68
2022/05/20 01:50:06;;;;;;;1.85;0.62;;;19.40;99.90;;;;;;4421568;32;20152;-68
2022/05/20 01:52:42;;;;;;;0.60;0.60;;;19.20;99.90;;;;;;4406390;32;20568;-68
2022/05/20 01:55:15;;;;;;;0.45;0.45;;;19.20;99.90;;;;;;4419187;32;20082;-70
2022/05/20 01:58:05;;;;;;;1.27;0.85;;;19.20;99.90;;;;;;4416087;32;21096;-69
2022/05/20 02:00:34;;;;;;;0.50;0.50;;;19.20;99.90;;;;;;4401522;32;20088;-69
2022/05/20 02:03:06;;;;;;;0.50;0.50;;;19.20;99.90;;;;;;4419233;32;20465;-69
2022/05/20 02:05:40;;;;;;;0.40;0.40;;;19.20;99.90;;;;;;4417012;32;20093;-69
2022/05/20 02:08:11;;;;;;;0.30;0.30;;;19.10;99.90;;;;;;4405120;32;20529;-69
2022/05/20 02:10:40;;;;;;;0.30;0.30;;;19.10;99.90;;;;;;4416599;32;20530;-69
2022/05/20 02:13:09;;;;;;;3.22;1.00;;;19.10;99.90;;;;;;4422628;32;20597;-68
2022/05/20 02:15:44;;;;;;;0.50;0.40;;;19.10;99.90;;;;;;4420959;32;20097;-68
2022/05/20 02:18:16;;;;;;;34.90;2.05;;;19.10;99.90;;;;;;4420682;32;20394;-68
2022/05/20 02:20:48;;;;;;;0.52;0.52;;;19.10;99.90;;;;;;4422169;32;20564;-69
2022/05/20 02:23:25;;;;;;;1.05;0.93;;;19.10;99.90;;;;;;4422994;32;20060;-73
2022/05/20 02:25:56;;;;;;;0.30;0.30;;;19.00;99.90;;;;;;4420435;32;20062;-70
2022/05/20 02:28:29;;;;;;;0.40;0.40;;;19.00;99.90;;;;;;4406230;32;20073;-70
2022/05/20 02:30:55;;;;;;;0.47;0.47;;;19.00;99.90;;;;;;4399685;32;20525;-68
2022/05/20 02:33:23;;;;;;;1.80;1.35;;;19.00;99.90;;;;;;4420443;32;20310;-68
2022/05/20 02:35:49;;;;;;;0.55;0.55;;;19.10;99.90;;;;;;4415136;32;20148;-68
2022/05/20 02:38:19;;;;;;;0.50;0.50;;;19.00;99.90;;;;;;4404637;32;20081;-69
2022/05/20 02:40:47;;;;;;;1.20;0.70;;;19.00;99.90;;;;;;4417738;32;20076;-69
2022/05/20 02:43:13;;;;;;;0.73;0.65;;;19.00;99.90;;;;;;4421189;32;20081;-68
2022/05/20 02:45:40;;;;;;;0.40;0.40;;;18.90;99.90;;;;;;4422619;32;20140;-69
2022/05/20 02:48:06;;;;;;;0.30;0.30;;;18.80;99.90;;;;;;4421163;32;20070;-69
2022/05/20 02:50:32;;;;;;;0.68;0.68;;;18.80;99.90;;;;;;4423838;32;20089;-69
2022/05/20 02:52:58;;;;;;;1.12;0.55;;;18.80;99.90;;;;;;4419739;32;20481;-69
2022/05/20 02:55:23;;;;;;;0.30;0.30;;;18.80;99.90;;;;;;4421301;32;20094;-69
2022/05/20 02:57:49;;;;;;;0.28;0.28;;;18.80;99.90;;;;;;4414186;32;20786;-69
2022/05/20 03:04:10;;;;;;;4.22;1.23;;;18.90;99.90;;;;;;4406641;32;20093;-69
2022/05/20 03:05:51;;;;;;;0.25;0.25;;;18.90;99.90;;;;;;4403595;32;20125;-69
2022/05/20 03:08:16;;;;;;;2.30;1.10;;;18.90;99.90;;;;;;4406325;32;20513;-69
2022/05/20 03:10:41;;;;;;;0.30;0.30;;;18.90;99.90;;;;;;4418416;32;20101;-69
2022/05/20 03:13:07;;;;;;;0.45;0.45;;;18.90;99.90;;;;;;4422147;32;20078;-70
2022/05/20 03:15:33;;;;;;;0.60;0.60;;;18.90;99.90;;;;;;4420089;32;20518;-69
2022/05/20 03:17:59;;;;;;;1.40;0.55;;;18.80;99.90;;;;;;4421505;32;20066;-69
2022/05/20 03:20:25;;;;;;;8.50;0.73;;;18.70;99.90;;;;;;4419615;32;20414;-69
2022/05/20 03:22:50;;;;;;;0.55;0.52;;;18.70;99.90;;;;;;4418550;32;20077;-70
2022/05/20 03:25:16;;;;;;;1.70;0.98;;;18.80;99.90;;;;;;4421788;32;20402;-69
2022/05/20 03:27:41;;;;;;;0.43;0.43;;;18.90;99.90;;;;;;4414228;32;20587;-68
2022/05/20 03:30:10;;;;;;;0.50;0.50;;;18.90;99.90;;;;;;4399084;32;20078;-68
2022/05/20 03:32:36;;;;;;;1.00;0.70;;;18.90;99.90;;;;;;4413679;32;20204;-68
2022/05/20 03:35:02;;;;;;;0.70;0.50;;;18.80;99.90;;;;;;4420082;32;20587;-68
2022/05/20 03:37:27;;;;;;;0.22;0.22;;;18.90;99.90;;;;;;4405346;32;20097;-68
2022/05/20 03:39:55;;;;;;;0.40;0.40;;;18.80;99.90;;;;;;4411983;32;20073;-68
2022/05/20 03:42:21;;;;;;;0.65;0.50;;;18.80;99.90;;;;;;4419450;32;20108;-68
2022/05/20 03:44:47;;;;;;;0.55;0.50;;;18.80;99.90;;;;;;4420358;32;20061;-69
2022/05/20 03:47:12;;;;;;;0.35;0.35;;;18.70;99.90;;;;;;4420450;32;20105;-69
2022/05/20 03:49:40;;;;;;;0.98;0.90;;;18.70;99.90;;;;;;4420176;32;20085;-69
2022/05/20 03:52:06;;;;;;;0.62;0.60;;;18.70;99.90;;;;;;4420069;32;20085;-69
2022/05/20 03:54:33;;;;;;;0.32;0.32;;;18.60;99.90;;;;;;4420487;32;20061;-69
2022/05/20 03:56:59;;;;;;;0.55;0.50;;;18.60;99.90;;;;;;4418895;32;20085;-69
2022/05/20 03:59:25;;;;;;;1.27;0.98;;;18.60;99.90;;;;;;4403284;32;20090;-69
2022/05/20 04:01:58;;;;;;;0.30;0.30;;;18.60;99.90;;;;;;4408461;32;20069;-69
2022/05/20 04:04:41;;;;;;;1.12;0.40;;;18.50;99.90;;;;;;4418337;32;20085;-69
2022/05/20 04:07:10;;;;;;;0.50;0.50;;;18.60;99.90;;;;;;4406343;32;20391;-70
2022/05/20 04:09:36;;;;;;;0.85;0.45;;;18.60;99.90;;;;;;4407797;32;20098;-69
2022/05/20 04:12:05;;;;;;;0.65;0.50;;;18.70;99.90;;;;;;4417627;32;20089;-69
2022/05/20 04:14:32;;;;;;;0.62;0.50;;;18.70;99.90;;;;;;4417913;32;20081;-69
2022/05/20 04:16:57;;;;;;;0.85;0.60;;;18.70;99.90;;;;;;4415826;32;20078;-69
2022/05/20 04:19:24;;;;;;;0.75;0.75;;;18.70;99.90;;;;;;4416331;32;20537;-69
2022/05/20 04:21:52;;;;;;;0.62;0.60;;;18.70;99.90;;;;;;4407634;32;20711;-69
2022/05/20 04:24:19;;;;;;;0.55;0.55;;;18.70;99.90;;;;;;4375944;32;20146;-69
2022/05/20 04:26:45;;;;;;;2.37;0.50;;;18.70;99.90;;;;;;4375218;32;20512;-69
2022/05/20 04:29:10;;;;;;;0.30;0.30;;;18.70;99.90;;;;;;4361054;32;20208;-69
2022/05/20 04:31:41;;;;;;;0.60;0.60;;;18.70;99.90;;;;;;4364927;32;20442;-69
2022/05/20 04:34:06;;;;;;;0.50;0.50;;;18.80;99.90;;;;;;4376627;32;20088;-69
2022/05/20 04:36:32;;;;;;;0.45;0.45;;;18.80;99.90;;;;;;4410054;32;20109;-69
2022/05/20 04:38:57;;;;;;;3.42;1.60;;;18.70;99.90;;;;;;4404296;32;20081;-69
2022/05/20 04:46:57;;;;;;;0.40;0.40;;;18.70;99.90;;;;;;4407054;32;20105;-69
2022/05/20 04:49:23;;;;;;;0.93;0.70;;;18.70;99.90;;;;;;4420706;32;20069;-69
2022/05/20 04:51:48;;;;;;;0.60;0.60;;;18.70;99.90;;;;;;4413557;32;20096;-69
2022/05/20 04:55:14;;;;;;;0.62;0.55;;;18.70;99.90;;;;;;4374133;32;20594;-69
2022/05/20 04:57:00;;;;;;;0.40;0.40;;;18.80;99.90;;;;;;4385362;32;20066;-69
2022/05/20 04:59:25;;;;;;;0.85;0.60;;;18.70;99.90;;;;;;4399757;32;20374;-69
2022/05/20 05:01:51;;;;;;;4.35;1.10;;;18.70;99.90;;;;;;4397900;32;20084;-69
2022/05/20 05:04:18;;;;;;;0.40;0.40;;;18.70;99.90;;;;;;4386937;32;20851;-69
2022/05/20 05:06:44;;;;;;;0.40;0.40;;;18.70;99.90;;;;;;4373939;32;20101;-69
2022/05/20 05:09:10;;;;;;;0.50;0.50;;;18.80;99.90;;;;;;4359619;32;20093;-69
2022/05/20 05:11:39;;;;;;;1.95;0.82;;;18.80;99.90;;;;;;4371506;32;20094;-69
2022/05/20 05:14:07;;;;;;;4.87;0.50;;;18.80;99.90;;;;;;4369756;32;20470;-69
2022/05/20 05:16:33;;;;;;;0.50;0.50;;;18.80;99.90;;;;;;4386210;32;20168;-68
2022/05/20 05:18:59;;;;;;;0.95;0.65;;;18.90;99.90;;;;;;4339583;32;20581;-69
2022/05/20 05:21:24;;;;;;;0.62;0.52;;;18.90;99.90;;;;;;4341415;32;20133;-69
2022/05/20 05:23:49;;;;;;;1.48;0.95;;;18.90;99.90;;;;;;4305571;32;20712;-69
2022/05/20 05:26:15;;;;;;;0.30;0.30;;;19.00;99.90;;;;;;4315696;32;20543;-69
2022/05/20 05:28:41;;;;;;;0.60;0.50;;;19.10;99.90;;;;;;4318771;32;20069;-68
2022/05/20 05:31:08;;;;;;;0.88;0.70;;;19.00;99.90;;;;;;4311216;32;20325;-68
2022/05/20 05:33:33;;;;;;;0.60;0.60;;;19.00;99.90;;;;;;4339848;32;21117;-68
2022/05/20 05:35:59;;;;;;;0.90;0.85;;;19.00;99.90;;;;;;4327388;32;20627;-68
2022/05/20 05:38:25;;;;;;;1.00;0.65;;;19.10;99.90;;;;;;4326866;32;20368;-68
2022/05/20 05:40:50;;;;;;;5.75;0.77;;;19.10;99.90;;;;;;4341971;32;20807;-68
2022/05/20 05:43:16;;;;;;;0.47;0.47;;;19.30;99.90;;;;;;4359566;32;20235;-68
2022/05/20 05:45:42;;;;;;;1.45;1.00;;;19.30;99.90;;;;;;4367570;32;20094;-67
2022/05/20 05:48:09;;;;;;;1.02;0.25;;;19.10;99.90;;;;;;4380674;32;20399;-70
2022/05/20 05:50:38;;;;;;;1.55;1.17;;;19.10;99.90;;;;;;4364445;32;20396;-68
2022/05/20 05:53:11;;;;;;;0.40;0.40;;;19.10;99.90;;;;;;4374031;32;20109;-68
2022/05/20 05:55:37;;;;;;;4.80;0.85;;;19.20;99.90;;;;;;4382049;32;20081;-69
2022/05/20 05:58:03;;;;;;;0.37;0.37;;;19.20;99.90;;;;;;4384302;32;21496;-68
2022/05/20 06:00:28;;;;;;;0.77;0.57;;;19.30;99.90;;;;;;4357225;32;20137;-68
2022/05/20 06:02:54;;;;;;;0.55;0.40;;;19.40;99.90;;;;;;4349373;32;20267;-70
2022/05/20 06:05:20;;;;;;;0.40;0.40;;;19.30;99.90;;;;;;4347679;32;20081;-70
2022/05/20 06:07:46;;;;;;;0.40;0.40;;;19.40;99.90;;;;;;4369289;32;20920;-70
2022/05/20 06:10:12;;;;;;;0.47;0.47;;;19.50;99.90;;;;;;4382480;32;20133;-70
2022/05/20 06:12:38;;;;;;;0.30;0.30;;;19.40;99.90;;;;;;4393187;32;20090;-70
2022/05/20 06:15:06;;;;;;;0.50;0.50;;;19.40;99.90;;;;;;4388354;32;20498;-70
2022/05/20 06:17:32;;;;;;;0.68;0.52;;;19.40;99.90;;;;;;4391728;32;20104;-70
2022/05/20 06:19:59;;;;;;;0.32;0.32;;;19.40;99.90;;;;;;4382370;32;20605;-70
2022/05/20 06:22:25;;;;;;;0.50;0.50;;;19.40;99.90;;;;;;4374862;32;20212;-70
2022/05/20 06:24:51;;;;;;;3.90;2.25;;;19.30;99.90;;;;;;4378838;32;20391;-70
2022/05/20 06:27:16;;;;;;;0.50;0.50;;;19.20;99.90;;;;;;4380230;32;20143;-70
2022/05/20 06:29:42;;;;;;;0.43;0.43;;;19.20;99.90;;;;;;4368634;32;21194;-69
2022/05/20 06:32:07;;;;;;;0.57;0.57;;;19.30;99.90;;;;;;4369043;32;20330;-69
2022/05/20 06:39:49;;;;;;;0.35;0.35;;;19.30;99.90;;;;;;4359321;32;20118;-69
2022/05/20 06:39:49;;;;;;;0.30;0.30;;;19.30;99.90;;;;;;4356240;32;20114;-69
2022/05/20 06:40:10;;;;;;;0.32;0.32;;;19.40;99.90;;;;;;4374690;32;20105;-69
2022/05/20 06:42:36;;;;;;;0.50;0.50;;;19.60;99.90;;;;;;4389352;32;20102;-68
2022/05/20 06:45:03;;;;;;;0.47;0.47;;;19.70;99.90;;;;;;4390580;32;20779;-69
2022/05/20 06:47:29;;;;;;;1.20;0.70;;;19.60;99.90;;;;;;4392462;32;20278;-69
2022/05/20 06:49:54;;;;;;;0.57;0.57;;;19.60;99.90;;;;;;4371369;32;20681;-70
2022/05/20 06:52:20;;;;;;;0.40;0.40;;;19.60;99.90;;;;;;4376780;32;20208;-69
2022/05/20 06:54:45;;;;;;;7.85;2.70;;;19.50;99.90;;;;;;4379484;32;20081;-70
2022/05/20 06:57:10;;;;;;;0.50;0.50;;;19.50;99.90;;;;;;4387787;32;20568;-70
2022/05/20 06:59:36;;;;;;;0.45;0.40;;;19.70;99.90;;;;;;4378475;32;20384;-69
2022/05/20 07:02:02;;;;;;;10.43;1.48;;;19.70;99.90;;;;;;4356510;32;20304;-70
2022/05/20 07:04:30;;;;;;;1.17;0.75;;;19.80;99.90;;;;;;4355760;32;20086;-68
2022/05/20 07:06:57;;;;;;;1.12;0.85;;;19.70;99.90;;;;;;4359485;32;20093;-68
2022/05/20 07:09:23;;;;;;;0.88;0.88;;;19.70;99.90;;;;;;4378837;32;20469;-68
2022/05/20 07:11:49;;;;;;;0.47;0.47;;;19.80;99.90;;;;;;4381819;32;20097;-67
2022/05/20 07:14:14;;;;;;;4.57;0.73;;;19.80;99.90;;;;;;4378762;32;20097;-68
2022/05/20 07:16:40;;;;;;;0.57;0.57;;;19.70;99.90;;;;;;4379409;32;21450;-69
2022/05/20 07:19:05;;;;;;;0.35;0.35;;;19.70;99.90;;;;;;4369809;32;20073;-68
2022/05/20 07:21:31;;;;;;;0.50;0.50;;;19.70;99.90;;;;;;4377072;32;20212;-68
2022/05/20 07:23:57;;;;;;;0.52;0.50;;;19.80;99.90;;;;;;4380843;32;20456;-68
2022/05/20 07:26:22;;;;;;;0.30;0.30;;;20.00;99.90;;;;;;4381807;32;20382;-68
2022/05/20 07:28:48;;;;;;;0.47;0.47;;;20.20;99.90;;;;;;4366632;32;20114;-68
2022/05/20 07:31:14;;;;;;;1.75;0.55;;;20.50;99.90;;;;;;4352614;32;20069;-68
2022/05/20 07:33:40;;;;;;;0.52;0.52;;;20.70;99.90;;;;;;4350514;32;20950;-67
2022/05/20 07:36:06;;;;;;;0.93;0.80;;;20.80;99.90;;;;;;4327450;32;90424;-67
2022/05/20 07:38:32;;;;;;;0.40;0.40;;;20.80;99.90;;;;;;4363472;32;20670;-68
2022/05/20 07:41:00;;;;;;;7.40;1.20;;;20.60;99.90;;;;;;4373816;32;20769;-68
2022/05/20 07:43:26;;;;;;;0.35;0.35;;;20.60;99.90;;;;;;4371871;32;20569;-71
2022/05/20 07:45:53;;;;;;;0.40;0.40;;;20.60;99.90;;;;;;4373600;32;20424;-70
2022/05/20 07:48:19;;;;;;;0.60;0.50;;;20.50;99.90;;;;;;4358568;32;21553;-72
2022/05/20 07:50:48;;;;;;;0.30;0.30;;;20.70;99.90;;;;;;4365524;32;20393;-72
2022/05/20 07:53:29;;;;;;;0.95;0.68;;;20.90;99.90;;;;;;4343888;32;20119;-70
2022/05/20 07:56:02;;;;;;;0.60;0.60;;;21.10;99.90;;;;;;4352350;32;21070;-70
2022/05/20 07:58:31;;;;;;;0.22;0.22;;;21.00;99.90;;;;;;4360489;32;20093;-71
2022/05/20 08:00:59;;;;;;;0.65;0.65;;;21.10;99.90;;;;;;4352460;32;20266;-71
2022/05/20 08:05:26;;;;;;;0.45;0.45;;;21.20;99.90;;;;;;4350767;32;20367;-71
2022/05/20 08:06:14;;;;;;;1.23;0.80;;;21.30;99.90;;;;;;4340502;32;20483;-72
2022/05/20 08:08:40;;;;;;;0.57;0.57;;;21.20;99.90;;;;;;4360253;32;20117;-71
2022/05/20 08:11:05;;;;;;;0.43;0.43;;;21.20;99.90;;;;;;4368687;32;20153;-71
2022/05/20 08:13:31;;;;;;;0.30;0.30;;;21.40;99.90;;;;;;4364933;32;20502;-71
2022/05/20 08:15:58;;;;;;;0.50;0.50;;;21.40;99.90;;;;;;4376676;32;20108;-70
2022/05/20 08:18:23;;;;;;;0.55;0.55;;;21.30;99.90;;;;;;4365774;32;20210;-70
2022/05/20 08:20:49;;;;;;;0.30;0.30;;;21.20;99.90;;;;;;4380786;32;20471;-70
2022/05/20 08:23:14;;;;;;;0.22;0.22;;;21.20;99.90;;;;;;4375698;32;20508;-70
2022/05/20 08:25:40;;;;;;;2.90;1.33;;;21.30;99.90;;;;;;4370513;32;20100;-69
2022/05/20 08:28:06;;;;;;;0.30;0.30;;;21.30;99.90;;;;;;4361494;32;21069;-70
2022/05/20 08:30:32;;;;;;;0.37;0.37;;;21.40;99.90;;;;;;4364107;32;22596;-70
2022/05/20 08:32:58;;;;;;;0.30;0.30;;;21.50;99.90;;;;;;4352770;32;22335;-70
2022/05/20 08:35:26;;;;;;;1.15;0.77;;;21.70;99.90;;;;;;4363515;32;20156;-70
2022/05/20 08:37:51;;;;;;;0.45;0.45;;;21.80;99.90;;;;;;4377545;32;20131;-70
2022/05/20 08:40:22;;;;;;;0.32;0.32;;;21.90;99.90;;;;;;4387852;32;20053;-71
2022/05/20 08:42:50;;;;;;;0.62;0.57;;;22.10;99.90;;;;;;4387241;32;20082;-71
2022/05/20 08:45:19;;;;;;;0.37;0.30;;;22.20;99.90;;;;;;4391287;32;20249;-71
2022/05/20 08:47:47;;;;;;;0.30;0.30;;;22.20;99.90;;;;;;4375064;32;20374;-71
2022/05/20 08:50:20;;;;;;;0.55;0.55;;;21.90;99.90;;;;;;4379213;32;20097;-73
2022/05/20 08:52:46;;;;;;;0.77;0.62;;;22.00;99.90;;;;;;4368540;32;20094;-71
2022/05/20 08:55:13;;;;;;;0.35;0.35;;;22.20;99.90;;;;;;4362286;32;20285;-72
2022/05/20 08:57:44;;;;;;;1.55;0.90;;;22.20;99.90;;;;;;4374550;32;20073;-69
2022/05/20 09:00:11;;;;;;;0.40;0.40;;;22.30;99.90;;;;;;4368700;32;20115;-72
2022/05/20 09:02:37;;;;;;;0.35;0.35;;;22.50;99.90;;;;;;4359475;32;20407;-72
2022/05/20 09:05:25;;;;;;;1.25;0.95;;;22.50;99.90;;;;;;4359138;32;20767;-72
2022/05/20 09:08:20;;;;;;;0.32;0.32;;;22.40;99.90;;;;;;4355777;32;20090;-72
2022/05/20 09:10:50;;;;;;;0.60;0.60;;;22.60;99.90;;;;;;4361094;32;20093;-71
2022/05/20 09:15:43;;;;;;;0.30;0.30;;;22.50;99.90;;;;;;4373390;32;20164;-71
2022/05/20 09:16:15;;;;;;;0.70;0.70;;;22.40;99.90;;;;;;4357423;32;20214;-71
2022/05/20 09:18:46;;;;;;;0.30;0.30;;;22.60;99.90;;;;;;4347385;32;20281;-71
2022/05/20 09:21:27;;;;;;;0.28;0.28;;;22.80;99.90;;;;;;4320884;32;21117;-70
2022/05/20 09:23:57;;;;;;;3.35;1.10;;;22.90;99.90;;;;;;4335399;32;21140;-72
2022/05/20 09:26:30;;;;;;;0.70;0.70;;;22.80;99.90;;;;;;4350469;32;20081;-72
2022/05/20 09:29:08;;;;;;;0.80;0.55;;;22.80;99.90;;;;;;4350906;32;20344;-71
2022/05/20 09:31:53;;;;;;;0.45;0.45;;;23.20;99.90;;;;;;4358720;32;20622;-69
2022/05/20 09:34:28;;;;;;;6.22;0.75;;;23.40;99.90;;;;;;4335693;32;20138;-71
2022/05/20 09:37:06;;;;;;;0.47;0.47;;;23.50;99.90;;;;;;4356893;32;20217;-71
2022/05/20 09:39:37;;;;;;;0.47;0.43;;;23.40;99.90;;;;;;4359709;32;20331;-71
2022/05/20 09:42:13;;;;;;;0.30;0.30;;;23.60;99.70;;;;;;4374481;32;20793;-73
2022/05/20 09:44:42;;;;;;;1.62;0.82;;;23.70;99.90;;;;;;4381842;32;20286;-73
2022/05/20 09:47:14;;;;;;;1.05;0.43;;;24.00;99.50;;;;;;4373244;32;20085;-71
2022/05/20 09:49:54;;;;;;;0.25;0.25;;;24.00;97.90;;;;;;4362919;32;20328;-72
2022/05/20 09:52:26;;;;;;;0.40;0.40;;;24.00;98.70;;;;;;4371867;32;20085;-72
2022/05/20 09:55:00;;;;;;;0.40;0.40;;;23.90;98.40;;;;;;4378083;32;20195;-71
2022/05/20 09:57:34;;;;;;;0.20;0.20;;;23.70;98.50;;;;;;4366638;32;20458;-71
2022/05/20 10:00:26;;;;;;;0.35;0.35;;;23.60;98.00;;;;;;4367533;32;20304;-71
2022/05/20 10:03:09;;;;;;;0.62;0.45;;;23.90;97.80;;;;;;4344637;32;20094;-71
2022/05/20 10:05:46;;;;;;;0.40;0.40;;;24.10;97.80;;;;;;4372397;32;20524;-71
2022/05/20 10:08:34;;;;;;;0.30;0.30;;;24.50;96.60;;;;;;4383299;32;20097;-71
2022/05/20 10:11:08;;;;;;;0.50;0.50;;;24.60;95.40;;;;;;4374364;32;20630;-70
2022/05/20 10:13:44;;;;;;;0.82;0.40;;;24.70;95.30;;;;;;4377179;32;20117;-71
2022/05/20 10:16:26;;;;;;;0.20;0.20;;;24.60;94.70;;;;;;4373235;32;20085;-71
2022/05/20 10:19:04;;;;;;;0.20;0.20;;;24.80;94.60;;;;;;4357636;32;20215;-71
2022/05/20 10:21:50;;;;;;;16.35;1.45;;;25.20;94.60;;;;;;4367080;32;20069;-71
2022/05/20 10:24:42;;;;;;;1.75;0.65;;;25.50;94.50;;;;;;4381475;32;20679;-71
2022/05/20 10:27:18;;;;;;;0.20;0.20;;;25.60;93.00;;;;;;4369676;32;21080;-71
2022/05/20 10:32:51;;;;;;;0.22;0.22;;;25.40;92.30;;;;;;4361300;32;20509;-71
2022/05/20 10:35:21;;;;;;;0.30;0.30;;;25.70;91.60;;;;;;4372711;32;21629;-72
2022/05/20 10:38:11;;;;;;;0.20;0.20;;;25.70;91.40;;;;;;4391121;32;20718;-72
2022/05/20 10:41:16;;;;;;;0.22;0.22;;;25.80;91.80;;;;;;4386580;32;20089;-74
2022/05/20 10:48:36;;;;;;;0.10;0.10;;;26.20;91.60;;;;;;4366323;32;20220;-69
2022/05/20 10:50:31;;;;;;;0.52;0.52;;;25.90;90.70;;;;;;4352189;32;20093;-73
2022/05/20 10:53:14;;;;;;;0.47;0.47;;;26.10;91.00;;;;;;4366899;32;20300;-73
2022/05/20 10:56:02;;;;;;;0.20;0.20;;;26.50;91.60;;;;;;4376478;32;20491;-73
2022/05/20 10:58:59;;;;;;;0.00;0.00;;;26.80;90.00;;;;;;4373956;32;21087;-73
2022/05/20 11:01:55;;;;;;;0.28;0.28;;;26.70;90.30;;;;;;4384597;32;20101;-73
2022/05/20 11:04:48;;;;;;;0.20;0.20;;;26.90;88.20;;;;;;4357665;32;20089;-71
2022/05/20 11:07:36;;;;;;;0.30;0.30;;;27.30;87.80;;;;;;4376485;32;20200;-72
2022/05/20 11:10:18;;;;;;;4.25;1.33;;;27.30;87.00;;;;;;4384681;32;20394;-72
2022/05/20 11:13:04;;;;;;;0.13;0.13;;;27.50;86.90;;;;;;4391993;32;20078;-72
2022/05/20 11:15:41;;;;;;;4.07;1.00;;;27.80;87.20;;;;;;4387044;32;20191;-73
2022/05/20 11:18:39;;;;;;;0.10;0.10;;;28.10;87.80;;;;;;4376140;32;20073;-72
2022/05/20 11:21:18;;;;;;;0.20;0.20;;;27.70;84.10;;;;;;4367287;32;20348;-71
2022/05/20 11:24:08;;;;;;;0.20;0.20;;;27.70;83.60;;;;;;4386761;32;20097;-71
2022/05/20 11:26:58;;;;;;;0.37;0.32;;;27.60;81.30;;;;;;4373951;32;20093;-72
2022/05/20 11:29:44;;;;;;;;;;;27.50;81.30;;;;;;4370763;32;20130;-72
2022/05/20 11:32:11;;;;;;;0.20;0.20;;;27.90;79.80;;;;;;4367079;32;20465;-71
2022/05/20 11:35:03;;;;;;;0.10;0.10;;;28.50;78.20;;;;;;4377120;32;20589;-73
2022/05/20 11:37:38;;;;;;;0.20;0.20;;;28.50;78.50;;;;;;4374638;32;20223;-72
2022/05/20 11:40:17;;;;;;;0.10;0.10;;;28.60;74.60;;;;;;4352324;32;20251;-70
2022/05/20 11:43:07;;;;;;;0.10;0.10;;;28.20;74.10;;;;;;4357500;32;20625;-71
2022/05/20 11:45:51;;;;;;;0.08;0.08;;;28.20;74.40;;;;;;4354379;32;20703;-73
2022/05/20 11:48:33;;;;;;;0.55;0.40;;;28.40;71.10;;;;;;4359578;32;20215;-74
2022/05/20 11:51:23;;;;;;;0.43;0.35;;;28.80;67.40;;;;;;4369189;32;20385;-73
2022/05/20 11:54:28;;;;;;;0.20;0.10;;;28.90;67.60;;;;;;4368640;32;20240;-73
2022/05/20 11:56:58;;;;;;;4.00;1.35;;;29.20;67.50;;;;;;4356487;32;20065;-74
2022/05/20 11:59:34;;;;;;;0.10;0.10;;;29.10;67.90;;;;;;4388544;32;20143;-74
2022/05/20 12:02:01;;;;;;;0.20;0.20;;;29.40;68.30;;;;;;4377619;32;20085;-74
2022/05/20 12:04:30;;;;;;;0.13;0.13;;;30.00;65.40;;;;;;4363141;32;20098;-73
2022/05/20 12:07:14;;;;;;;0.10;0.10;;;29.90;67.10;;;;;;4376233;32;20144;-73
2022/05/20 12:09:43;;;;;;;7.12;0.43;;;30.00;64.30;;;;;;4359407;32;20855;-74
2022/05/20 12:12:12;;;;;;;0.13;0.13;;;30.30;65.20;;;;;;4353739;32;20297;-73
2022/05/20 12:15:02;;;;;;;0.35;0.30;;;30.50;64.90;;;;;;4361041;32;20113;-73
2022/05/20 12:17:50;;;;;;;0.00;0.00;;;31.00;64.60;;;;;;4349702;32;20379;-72
2022/05/20 12:24:30;;;;;;;0.03;0.03;;;30.70;61.90;;;;;;4359645;32;20801;-75
2022/05/20 12:26:39;;;;;;;0.10;0.10;;;30.00;63.00;;;;;;4372080;32;20144;-74
2022/05/20 12:29:43;;;;;;;0.25;0.25;;;30.30;64.60;;;;;;4367981;32;20556;-74
2022/05/20 12:32:18;;;;;;;0.00;0.00;;;30.80;62.70;;;;;;4354632;32;20230;-70
2022/05/20 12:34:54;;;;;;;0.10;0.10;;;30.70;61.60;;;;;;4361101;32;20389;-71
2022/05/20 12:37:44;;;;;;;0.17;0.17;;;30.70;61.70;;;;;;4375954;32;20186;-71
2022/05/20 12:40:38;;;;;;;0.28;0.28;;;30.80;63.00;;;;;;4344729;32;20073;-69
2022/05/20 12:43:06;;;;;;;0.10;0.10;;;30.70;62.50;;;;;;4356232;32;20262;-69
2022/05/20 12:45:52;;;;;;;0.20;0.20;;;31.10;61.90;;;;;;4370424;32;20127;-69
2022/05/20 12:48:23;;;;;;;0.20;0.20;;;31.20;61.80;;;;;;4374956;32;20383;-69
2022/05/20 12:51:07;;;;;;;0.28;0.25;;;31.40;62.30;;;;;;4382468;32;20476;-69
2022/05/20 12:53:35;;;;;;;0.13;0.13;;;31.10;62.90;;;;;;4390613;32;20085;-68
2022/05/20 12:56:01;;;;;;;1.08;0.45;;;30.80;63.30;;;;;;4400405;32;20089;-69
2022/05/20 12:58:30;;;;;;;0.30;0.30;;;30.70;61.70;;;;;;4396717;32;20140;-68
2022/05/20 13:00:59;;;;;;;0.80;0.57;;;31.20;61.90;;;;;;4391893;32;20089;-69
2022/05/20 13:03:37;;;;;;;0.10;0.10;;;31.00;62.20;;;;;;4372961;32;20168;-69
2022/05/20 13:06:06;;;;;;;0.98;0.65;;;31.10;62.50;;;;;;4389785;32;20593;-69
2022/05/20 13:08:44;;;;;;;0.55;0.43;;;31.00;62.90;;;;;;4385341;32;20089;-70
2022/05/20 13:11:13;;;;;;;0.10;0.10;;;30.20;63.20;;;;;;4354980;32;20152;-70
2022/05/20 13:13:39;;;;;;;0.00;0.00;;;29.90;64.20;;;;;;4394116;32;20144;-69
2022/05/20 13:16:08;;;;;;;0.13;0.13;;;29.80;64.40;;;;;;4374165;32;20831;-70
2022/05/20 13:18:40;;;;;;;0.20;0.20;;;30.20;65.30;;;;;;4383884;32;20870;-70
2022/05/20 13:21:16;;;;;;;0.10;0.10;;;30.20;64.50;;;;;;4396710;32;20770;-70
2022/05/20 13:23:43;;;;;;;1.75;0.37;;;30.10;63.50;;;;;;4390698;32;20569;-70
2022/05/20 13:26:27;;;;;;;0.25;0.25;;;30.00;64.80;;;;;;4396319;32;20317;-70
2022/05/20 13:28:59;;;;;;;0.60;0.50;;;29.90;65.80;;;;;;4388257;32;20102;-70